Time;durP1;ratioP1;P1;durP2;ratioP2;P2;SDS_P1;SDS_P2;PMS_P1;PMS_P2;Temp;Humidity;BMP_temperature;BMP_pressure;BME280_temperature;BME280_humidity;BME280_pressure;Samples;Min_cycle;Max_cycle;Signal;HPM_P1;HPM_P2
2023/08/21 00:00:13;;;;;;;8.45;6.38;;;;;;;-142.57;54.85;115900.28;5075644;28;20024;-85
2023/08/21 00:02:39;;;;;;;11.93;6.80;;;;;;;-142.57;54.54;115900.28;5074357;28;20040;-81
2023/08/21 00:05:05;;;;;;;9.10;6.65;;;;;;;-142.57;54.36;115900.28;5073992;28;20042;-82
2023/08/21 00:07:31;;;;;;;10.23;6.57;;;;;;;-142.57;54.48;115900.28;5073305;28;20033;-82
2023/08/21 00:09:57;;;;;;;9.82;6.82;;;;;;;-142.57;54.35;115900.28;5072799;28;20437;-81
2023/08/21 00:12:22;;;;;;;10.45;6.13;;;;;;;-142.57;54.48;115900.28;5074498;28;20102;-81
2023/08/21 00:14:48;;;;;;;11.20;6.50;;;;;;;-142.57;54.38;115900.28;5074209;28;20534;-81
2023/08/21 00:17:13;;;;;;;10.05;6.50;;;;;;;-142.57;54.12;115900.28;5074305;28;20032;-81
2023/08/21 00:19:39;;;;;;;8.73;6.63;;;;;;;-142.57;54.37;115900.28;5073799;28;20037;-81
2023/08/21 00:22:04;;;;;;;12.32;6.78;;;;;;;-142.57;55.12;115900.28;5073740;28;20052;-82
2023/08/21 00:24:30;;;;;;;11.05;6.22;;;;;;;-142.57;55.66;115900.28;5074059;28;20020;-82
2023/08/21 00:26:56;;;;;;;11.13;6.20;;;;;;;-142.57;55.87;115900.28;5073451;28;20040;-83
2023/08/21 00:29:22;;;;;;;7.30;6.03;;;;;;;-142.57;56.34;115900.28;5074443;28;20033;-83
2023/08/21 00:31:47;;;;;;;8.13;6.60;;;;;;;-142.57;55.95;115900.28;5055822;28;20032;-82
2023/08/21 00:34:14;;;;;;;8.35;6.50;;;;;;;-142.57;55.68;115900.28;5073720;28;20036;-82
2023/08/21 00:36:40;;;;;;;13.75;6.65;;;;;;;-142.57;55.34;115900.28;5056040;28;20036;-82
2023/08/21 00:39:06;;;;;;;11.30;6.63;;;;;;;-142.57;56.12;115900.28;5072796;28;20043;-83
2023/08/21 00:41:34;;;;;;;10.70;6.43;;;;;;;-142.57;56.26;115900.28;5074009;28;20480;-83
2023/08/21 00:43:59;;;;;;;12.15;6.50;;;;;;;-142.57;56.14;115900.28;5074522;28;20036;-82
2023/08/21 00:46:25;;;;;;;7.05;6.03;;;;;;;-142.57;56.09;115900.28;5073013;28;20362;-82
2023/08/21 00:48:51;;;;;;;8.13;6.55;;;;;;;-142.57;55.96;115900.28;5074243;28;20032;-84
2023/08/21 00:51:17;;;;;;;11.98;6.38;;;;;;;-142.57;57.15;115900.28;5074067;28;20036;-82
2023/08/21 00:53:44;;;;;;;10.02;6.15;;;;;;;-142.57;57.64;115900.28;5072671;28;20047;-83
2023/08/21 00:56:12;;;;;;;11.63;6.97;;;;;;;-142.57;58.34;115900.28;5055651;28;20101;-82
2023/08/21 00:58:38;;;;;;;11.13;6.38;;;;;;;-142.57;58.09;115900.28;5073463;28;20051;-83
2023/08/21 01:01:04;;;;;;;8.88;6.28;;;;;;;-142.57;56.96;115900.28;5077687;28;20150;-81
2023/08/21 01:03:30;;;;;;;12.02;6.30;;;;;;;-142.57;56.83;115900.28;5076039;28;20554;-81
2023/08/21 01:05:56;;;;;;;10.70;5.95;;;;;;;-142.57;56.14;115900.28;5074845;28;20036;-81
2023/08/21 01:08:40;;;;;;;7.85;6.18;;;;;;;-142.57;55.31;115900.28;5073580;28;20029;-81
2023/08/21 01:11:13;;;;;;;8.65;6.50;;;;;;;-142.57;54.37;115900.28;5073501;28;20039;-81
2023/08/21 01:13:59;;;;;;;16.52;6.53;;;;;;;-142.57;54.16;115900.28;5073394;28;20145;-82
2023/08/21 01:16:25;;;;;;;7.18;5.75;;;;;;;-142.57;54.25;115900.28;5072813;28;20496;-82
2023/08/21 01:18:54;;;;;;;11.85;6.50;;;;;;;-142.57;54.75;115900.28;5076600;28;20115;-82
2023/08/21 01:21:19;;;;;;;7.15;6.35;;;;;;;-142.57;55.65;115900.28;5078236;28;20032;-81
2023/08/21 01:23:45;;;;;;;17.25;6.80;;;;;;;-142.57;55.18;115900.28;5076821;28;20558;-82
2023/08/21 01:26:11;;;;;;;8.43;6.05;;;;;;;-142.57;55.44;115900.28;5077246;28;20041;-82
2023/08/21 01:28:37;;;;;;;12.95;6.25;;;;;;;-142.57;55.45;115900.28;5078222;28;20031;-82
2023/08/21 01:31:15;;;;;;;7.40;6.05;;;;;;;-142.57;54.94;115900.28;5060315;28;20044;-82
2023/08/21 01:33:46;;;;;;;9.45;6.53;;;;;;;-142.57;56.15;115900.28;5078150;28;20047;-82
2023/08/21 01:36:12;;;;;;;17.20;6.43;;;;;;;-142.57;55.40;115900.28;5077646;28;20036;-82
2023/08/21 01:38:38;;;;;;;7.88;6.28;;;;;;;-142.57;55.22;115900.28;5076212;28;20468;-81
2023/08/21 01:41:04;;;;;;;9.48;5.97;;;;;;;-142.57;55.57;115900.28;5076056;28;20506;-81
2023/08/21 01:43:29;;;;;;;8.68;5.82;;;;;;;-142.57;56.18;115900.28;5077107;28;20043;-81
2023/08/21 01:45:55;;;;;;;10.88;6.30;;;;;;;-142.57;56.24;115900.28;5075705;28;20131;-82
2023/08/21 01:48:21;;;;;;;7.13;6.38;;;;;;;-142.57;56.42;115900.28;5075713;28;20021;-80
2023/08/21 01:50:47;;;;;;;13.05;6.43;;;;;;;-142.57;56.46;115900.28;5075659;28;20036;-82
2023/08/21 01:53:12;;;;;;;10.25;7.00;;;;;;;-142.57;56.51;115900.28;5076856;28;20028;-81
2023/08/21 01:55:38;;;;;;;10.10;6.35;;;;;;;-142.57;57.04;115900.28;5076319;28;20528;-82
2023/08/21 01:58:03;;;;;;;10.00;6.72;;;;;;;-142.57;57.07;115900.28;5075573;28;20029;-83
2023/08/21 02:00:29;;;;;;;9.73;6.43;;;;;;;-142.57;56.93;115900.28;5075067;28;20538;-80
2023/08/21 02:02:54;;;;;;;8.23;6.60;;;;;;;-142.57;57.11;115900.28;5076852;28;20032;-81
2023/08/21 02:05:20;;;;;;;7.43;6.07;;;;;;;-142.57;56.80;115900.28;5076908;28;20035;-81
2023/08/21 02:07:45;;;;;;;6.82;6.13;;;;;;;-142.57;57.03;115900.28;5075694;28;20039;-80
2023/08/21 02:10:17;;;;;;;9.65;6.50;;;;;;;-142.57;57.50;115900.28;5076286;28;20381;-81
2023/08/21 02:12:43;;;;;;;10.57;6.55;;;;;;;-142.57;56.97;115900.28;5077011;28;20028;-82
2023/08/21 02:15:14;;;;;;;7.93;5.68;;;;;;;-142.57;56.68;115900.28;5080490;28;20082;-81
2023/08/21 02:17:42;;;;;;;;;;;;;;;-142.57;56.29;115900.28;5075239;28;20445;-81
2023/08/21 02:20:09;;;;;;;15.10;6.90;;;;;;;-142.57;55.97;115900.28;5093824;28;19935;-81
2023/08/21 02:22:35;;;;;;;8.95;6.80;;;;;;;-142.57;55.74;115900.28;5096416;28;20032;-82
2023/08/21 02:25:01;;;;;;;7.53;5.82;;;;;;;-142.57;55.59;115900.28;5098929;28;20020;-80
2023/08/21 02:27:28;;;;;;;7.70;6.50;;;;;;;-142.57;56.27;115900.28;5073965;28;20047;-81
2023/08/21 02:29:53;;;;;;;9.15;6.22;;;;;;;-142.57;56.76;115900.28;5081258;28;20036;-81
2023/08/21 02:32:19;;;;;;;10.60;6.68;;;;;;;-142.57;56.89;115900.28;5063708;28;20128;-81
2023/08/21 02:34:44;;;;;;;12.45;6.63;;;;;;;-142.57;56.82;115900.28;5078803;28;20071;-81
2023/08/21 02:37:13;;;;;;;12.50;6.40;;;;;;;-142.57;56.56;115900.28;5076314;28;20028;-81
2023/08/21 02:39:39;;;;;;;8.98;6.45;;;;;;;-142.57;56.47;115900.28;5075425;28;20037;-81
2023/08/21 02:42:04;;;;;;;10.50;7.07;;;;;;;-142.57;57.11;115900.28;5076755;28;20036;-81
2023/08/21 02:44:30;;;;;;;10.00;6.28;;;;;;;-142.57;57.75;115900.28;5075161;28;20405;-81
2023/08/21 02:46:56;;;;;;;9.80;7.07;;;;;;;-142.57;57.36;115900.28;5074979;28;20041;-81
2023/08/21 02:49:22;;;;;;;11.93;6.28;;;;;;;-142.57;58.41;115900.28;5057195;28;20021;-82
2023/08/21 02:51:49;;;;;;;9.98;6.80;;;;;;;-142.57;58.05;115900.28;5057201;28;20039;-81
2023/08/21 02:54:15;;;;;;;10.02;6.80;;;;;;;-142.57;57.72;115900.28;5075084;28;20473;-80
2023/08/21 02:56:41;;;;;;;14.70;6.80;;;;;;;-142.57;58.05;115900.28;5056736;28;20136;-82
2023/08/21 02:59:07;;;;;;;10.90;6.65;;;;;;;-142.57;57.89;115900.28;5074902;28;20444;-82
2023/08/21 03:01:36;;;;;;;10.30;7.50;;;;;;;-142.57;57.99;115900.28;5073807;28;20028;-82
2023/08/21 03:04:01;;;;;;;9.68;6.72;;;;;;;-142.57;56.79;115900.28;5075069;28;20043;-81
2023/08/21 03:06:27;;;;;;;8.48;6.85;;;;;;;-142.57;57.34;115900.28;5074514;28;20060;-81
2023/08/21 03:08:53;;;;;;;11.88;7.10;;;;;;;-142.57;57.17;115900.28;5073524;28;20032;-82
2023/08/21 03:11:19;;;;;;;9.35;6.85;;;;;;;-142.57;57.62;115900.28;5073315;28;20032;-82
2023/08/21 03:13:45;;;;;;;12.57;7.28;;;;;;;-142.57;57.21;115900.28;5073495;28;20047;-81
2023/08/21 03:16:11;;;;;;;10.45;6.28;;;;;;;-142.57;56.67;115900.28;5075312;28;20037;-81
2023/08/21 03:18:56;;;;;;;10.13;7.13;;;;;;;-142.57;57.25;115900.28;5057046;28;20036;-81
2023/08/21 03:21:23;;;;;;;8.93;6.95;;;;;;;-142.57;56.22;115900.28;5058373;28;20040;-81
2023/08/21 03:23:56;;;;;;;8.02;6.30;;;;;;;-142.57;56.06;115900.28;5073103;28;20059;-82
2023/08/21 03:26:21;;;;;;;;;;;;;;;-142.57;56.60;115900.28;5073692;28;20037;-80
2023/08/21 03:28:47;;;;;;;10.63;6.88;;;;;;;-142.57;56.11;115900.28;5074156;28;19913;-81
2023/08/21 03:31:13;;;;;;;9.98;6.82;;;;;;;-142.57;56.47;115900.28;5076919;28;20398;-88
2023/08/21 03:33:39;;;;;;;10.25;7.38;;;;;;;-142.57;57.57;115900.28;5077372;28;20489;-87
2023/08/21 03:36:04;;;;;;;10.52;6.38;;;;;;;-142.57;57.76;115900.28;5077518;28;20075;-85
2023/08/21 03:38:30;;;;;;;8.43;6.72;;;;;;;-142.57;57.76;115900.28;5086875;28;20028;-86
2023/08/21 03:40:56;;;;;;;8.05;7.00;;;;;;;-142.57;57.20;115900.28;5084732;28;20050;-84
2023/08/21 03:43:21;;;;;;;12.02;6.97;;;;;;;-142.57;58.24;115900.28;5078680;28;20078;-89
2023/08/21 03:45:47;;;;;;;13.07;7.38;;;;;;;-142.57;58.91;115900.28;5082831;28;20058;-84
2023/08/21 03:48:13;;;;;;;10.25;6.97;;;;;;;-142.57;59.85;115900.28;5083965;28;20012;-87
2023/08/21 03:50:39;;;;;;;12.80;7.38;;;;;;;-142.57;60.59;115900.28;5060066;28;20143;-88
2023/08/21 03:53:04;;;;;;;8.05;6.97;;;;;;;-142.57;61.74;115900.28;5075968;28;20145;-90
2023/08/21 03:55:33;;;;;;;12.80;7.80;;;;;;;-142.57;61.36;115900.28;5075843;28;20120;-84
2023/08/21 03:57:58;;;;;;;12.85;7.57;;;;;;;-142.57;62.02;115900.28;5075909;28;20043;-89
2023/08/21 04:00:24;;;;;;;11.73;7.45;;;;;;;-142.57;62.55;115900.28;5059260;28;20439;-86
2023/08/21 04:02:50;;;;;;;13.98;7.55;;;;;;;-142.57;62.66;115900.28;5076065;28;20047;-87
2023/08/21 04:05:16;;;;;;;12.23;7.68;;;;;;;-142.57;63.39;115900.28;5077316;28;20040;-90
2023/08/21 04:07:41;;;;;;;14.00;7.63;;;;;;;-142.57;63.90;115900.28;5077379;28;20388;-85
2023/08/21 04:10:08;;;;;;;9.32;7.55;;;;;;;-142.57;64.46;115900.28;5077994;28;20047;-87
2023/08/21 04:12:33;;;;;;;10.73;7.72;;;;;;;-142.57;63.81;115900.28;5076919;28;20021;-89
2023/08/21 04:15:06;;;;;;;14.55;8.25;;;;;;;-142.57;63.31;115900.28;5076488;28;20127;-89
2023/08/21 04:17:31;;;;;;;9.75;8.07;;;;;;;-142.57;64.21;115900.28;5076096;28;20045;-85
2023/08/21 04:20:01;;;;;;;12.80;7.90;;;;;;;-142.57;65.21;115900.28;5076278;28;20029;-90
2023/08/21 04:22:27;;;;;;;8.52;7.18;;;;;;;-142.57;65.81;115900.28;5076404;28;20062;-86
2023/08/21 04:24:52;;;;;;;13.27;8.50;;;;;;;-142.57;65.98;115900.28;5073868;28;20116;-88
2023/08/21 04:27:18;;;;;;;12.30;8.38;;;;;;;-142.57;65.76;115900.28;5076298;28;20056;-87
2023/08/21 04:29:43;;;;;;;11.15;7.43;;;;;;;-142.57;65.87;115900.28;5074747;28;20075;-86
2023/08/21 04:32:09;;;;;;;11.07;7.82;;;;;;;-142.57;65.61;115900.28;5076371;28;20029;-87
2023/08/21 04:34:35;;;;;;;13.25;7.97;;;;;;;-142.57;65.49;115900.28;5074593;28;20149;-86
2023/08/21 04:37:01;;;;;;;12.82;7.35;;;;;;;-142.57;64.66;115900.28;5057760;28;20035;-87
2023/08/21 04:39:27;;;;;;;11.68;7.80;;;;;;;-142.57;64.63;115900.28;5056259;28;20385;-86
2023/08/21 04:41:53;;;;;;;14.23;8.80;;;;;;;-142.57;65.59;115900.28;5072815;28;20396;-85
2023/08/21 04:44:19;;;;;;;13.75;8.02;;;;;;;-142.57;66.83;115900.28;5072771;28;20100;-84
2023/08/21 04:46:51;;;;;;;10.75;8.15;;;;;;;-142.57;66.53;115900.28;5074009;28;20044;-83
2023/08/21 04:49:17;;;;;;;14.18;7.88;;;;;;;-142.57;65.79;115900.28;5073279;28;20048;-83
2023/08/21 04:51:43;;;;;;;12.43;8.45;;;;;;;-142.57;66.36;115900.28;5056312;28;20020;-85
2023/08/21 04:54:09;;;;;;;16.92;7.95;;;;;;;-142.57;65.67;115900.28;5073781;28;20054;-84
2023/08/21 04:56:35;;;;;;;15.77;8.02;;;;;;;-142.57;66.71;115900.28;5072460;28;20489;-85
2023/08/21 04:59:02;;;;;;;13.32;8.25;;;;;;;-142.57;66.36;115900.28;5072977;28;20071;-86
2023/08/21 05:01:29;;;;;;;11.13;7.90;;;;;;;-142.57;66.07;115900.28;5072926;28;20086;-83
2023/08/21 05:03:56;;;;;;;14.32;9.07;;;;;;;-142.57;65.77;115900.28;5073725;28;20469;-86
2023/08/21 05:06:23;;;;;;;15.65;8.40;;;;;;;-142.57;65.10;115900.28;5074750;28;20024;-83
2023/08/21 05:08:50;;;;;;;18.95;9.18;;;;;;;-142.57;65.08;115900.28;5075086;28;20154;-87
2023/08/21 05:11:15;;;;;;;15.43;9.55;;;;;;;-142.57;64.96;115900.28;5076042;28;20028;-85
2023/08/21 05:13:42;;;;;;;15.18;9.40;;;;;;;-142.57;64.65;115900.28;5055690;28;20055;-87
2023/08/21 05:16:09;;;;;;;11.43;8.85;;;;;;;-142.57;63.94;115900.28;5073612;28;20434;-83
2023/08/21 05:18:40;;;;;;;19.20;9.20;;;;;;;-142.57;62.87;115900.28;5073143;28;20125;-86
2023/08/21 05:21:06;;;;;;;19.27;9.80;;;;;;;-142.57;62.32;115900.28;5083071;28;20059;-83
2023/08/21 05:23:31;;;;;;;20.67;9.23;;;;;;;-142.57;62.31;115900.28;5083939;28;20004;-84
2023/08/21 05:26:03;;;;;;;17.48;8.75;;;;;;;-142.57;62.18;115900.28;5075717;28;20062;-83
2023/08/21 05:28:29;;;;;;;13.43;8.52;;;;;;;-142.57;61.13;115900.28;5074022;28;20041;-86
2023/08/21 05:30:55;;;;;;;16.77;8.68;;;;;;;-142.57;60.11;115900.28;5057425;28;20032;-85
2023/08/21 05:33:20;;;;;;;14.63;8.30;;;;;;;-142.57;60.06;115900.28;5059590;28;20074;-88
2023/08/21 05:35:49;;;;;;;19.38;8.60;;;;;;;-142.57;57.81;115900.28;5076673;28;20020;-87
2023/08/21 05:38:14;;;;;;;19.95;8.57;;;;;;;-142.57;56.34;115900.28;5074683;28;20445;-88
2023/08/21 05:40:41;;;;;;;20.13;8.68;;;;;;;-142.57;52.50;115900.28;5077402;28;20039;-81
2023/08/21 05:43:08;;;;;;;17.40;8.70;;;;;;;-142.57;52.32;115900.28;5075851;28;20052;-86
2023/08/21 05:45:35;;;;;;;20.02;9.15;;;;;;;-142.57;53.68;115900.28;5078550;28;20106;-88
2023/08/21 05:48:01;;;;;;;17.42;8.98;;;;;;;-142.57;50.82;115900.28;5078085;28;20471;-88
2023/08/21 05:50:30;;;;;;;23.80;8.90;;;;;;;-142.57;52.21;115900.28;5061402;28;20037;-89
2023/08/21 05:52:57;;;;;;;13.35;8.93;;;;;;;-142.57;51.47;115900.28;5079292;28;20044;-92
2023/08/21 05:55:23;;;;;;;12.23;8.27;;;;;;;-142.57;53.52;115900.28;5079323;28;20036;-87
2023/08/21 05:57:49;;;;;;;13.23;8.00;;;;;;;-142.57;50.41;115900.28;5077461;28;20045;-90
2023/08/21 06:00:19;;;;;;;15.00;8.30;;;;;;;-142.57;47.58;115900.28;5076960;28;20035;-86
2023/08/21 06:02:47;;;;;;;16.88;8.43;;;;;;;-142.57;50.82;115900.28;5079697;28;20393;-84
2023/08/21 06:05:33;;;;;;;17.25;8.10;;;;;;;-142.57;51.14;115900.28;5062931;28;20047;-83
2023/08/21 06:07:59;;;;;;;14.07;7.57;;;;;;;-142.57;46.71;115900.28;5085014;28;20025;-89
2023/08/21 06:10:25;;;;;;;13.07;7.85;;;;;;;-142.57;46.85;115900.28;5084549;28;20056;-87
2023/08/21 06:12:51;;;;;;;17.60;7.97;;;;;;;-142.57;45.17;115900.28;5083362;28;20029;-90
2023/08/21 06:15:17;;;;;;;16.48;8.38;;;;;;;-142.57;48.76;115900.28;5078064;28;20489;-87
2023/08/21 06:17:42;;;;;;;22.20;7.88;;;;;;;-142.57;47.66;115900.28;5078154;28;20045;-89
2023/08/21 06:20:08;;;;;;;15.38;7.72;;;;;;;-142.57;43.15;115900.28;5079334;28;20040;-84
2023/08/21 06:22:35;;;;;;;33.45;8.32;;;;;;;-142.57;42.93;115900.28;5078815;28;20028;-86
2023/08/21 06:25:02;;;;;;;18.75;7.72;;;;;;;-142.57;46.15;115900.28;5081461;28;20024;-84
2023/08/21 06:27:27;;;;;;;15.85;8.73;;;;;;;-142.57;44.72;115900.28;5063873;28;20047;-83
2023/08/21 06:29:54;;;;;;;10.73;6.78;;;;;;;-142.57;42.97;115900.28;5080554;28;20047;-88
2023/08/21 06:32:19;;;;;;;52.35;10.68;;;;;;;-142.57;41.50;115900.28;5079831;28;20028;-85
2023/08/21 06:34:45;;;;;;;48.05;11.23;;;;;;;-142.57;41.43;115900.28;5086048;28;20484;-83
2023/08/21 06:37:12;;;;;;;19.15;8.77;;;;;;;-142.57;41.58;115900.28;5086567;28;20036;-89
2023/08/21 06:39:38;;;;;;;12.82;7.45;;;;;;;-142.57;42.71;115900.28;5083557;28;20120;-88
2023/08/21 06:42:04;;;;;;;17.73;8.18;;;;;;;-142.57;40.39;115900.28;5082601;28;20082;-88
2023/08/21 06:44:37;;;;;;;23.67;8.30;;;;;;;-142.57;40.56;115900.28;5078349;28;20048;-83
2023/08/21 06:47:03;;;;;;;17.13;8.10;;;;;;;-142.57;40.73;115900.28;5080902;28;20043;-87
2023/08/21 06:49:28;;;;;;;9.15;7.43;;;;;;;-142.57;41.86;115900.28;5079720;28;20029;-82
2023/08/21 06:51:54;;;;;;;21.42;8.15;;;;;;;-142.57;41.88;115900.28;5079069;28;20064;-84
2023/08/21 06:54:20;;;;;;;34.47;8.20;;;;;;;-142.57;42.14;115900.28;5077279;28;20028;-86
2023/08/21 06:56:45;;;;;;;20.75;7.78;;;;;;;-142.57;42.01;115900.28;5076894;28;20041;-85
2023/08/21 06:59:11;;;;;;;17.13;7.20;;;;;;;-142.57;39.88;115900.28;5075160;28;20051;-85
2023/08/21 07:01:36;;;;;;;20.55;7.80;;;;;;;-142.57;37.80;115900.28;5075853;28;20035;-91
2023/08/21 07:04:02;;;;;;;13.38;7.13;;;;;;;-142.57;37.83;115900.28;5058527;28;20028;-85
2023/08/21 07:06:29;;;;;;;17.70;7.53;;;;;;;-142.57;38.86;115900.28;5076643;28;20033;-84
2023/08/21 07:08:54;;;;;;;11.50;6.88;;;;;;;-142.57;38.49;115900.28;5076835;28;20056;-85
2023/08/21 07:11:20;;;;;;;15.40;6.45;;;;;;;-142.57;37.29;115900.28;5075687;28;20047;-84
2023/08/21 07:13:45;;;;;;;17.33;6.90;;;;;;;-142.57;38.08;115900.28;5075697;28;20078;-85
2023/08/21 07:16:11;;;;;;;84.20;11.35;;;;;;;-142.57;37.76;115900.28;5075547;28;20450;-86
2023/08/21 07:18:36;;;;;;;42.72;8.50;;;;;;;-142.57;37.17;115900.28;5075974;28;20634;-86
2023/08/21 07:21:04;;;;;;;28.48;7.72;;;;;;;-142.57;38.65;115900.28;5076887;28;20033;-87
2023/08/21 07:23:30;;;;;;;9.35;7.18;;;;;;;-142.57;39.26;115900.28;5076980;28;20115;-89
2023/08/21 07:25:57;;;;;;;13.80;6.60;;;;;;;-142.57;37.31;115900.28;5076413;28;20517;-85
2023/08/21 07:28:23;;;;;;;12.23;7.30;;;;;;;-142.57;37.85;115900.28;5077285;28;20075;-86
2023/08/21 07:30:55;;;;;;;19.65;6.72;;;;;;;-142.57;37.07;115900.28;5077884;28;20037;-86
2023/08/21 07:33:20;;;;;;;10.77;6.80;;;;;;;-142.57;35.65;115900.28;5074944;28;20165;-86
2023/08/21 07:35:46;;;;;;;13.43;6.93;;;;;;;-142.57;35.57;115900.28;5074693;28;20028;-85
2023/08/21 07:38:12;;;;;;;13.15;6.55;;;;;;;-142.57;35.56;115900.28;5075652;28;20074;-85
2023/08/21 07:40:37;;;;;;;13.50;6.65;;;;;;;-142.57;33.96;115900.28;5075236;28;20028;-86
2023/08/21 07:43:03;;;;;;;11.32;6.65;;;;;;;-142.57;31.90;115900.28;5075315;28;20039;-86
2023/08/21 07:45:28;;;;;;;12.88;6.60;;;;;;;-142.57;33.60;115900.28;5074223;28;20032;-82
2023/08/21 07:47:54;;;;;;;12.07;6.22;;;;;;;-142.57;32.28;115900.28;5074491;28;20036;-85
2023/08/21 07:50:19;;;;;;;22.15;6.50;;;;;;;-142.57;32.62;115900.28;5080188;28;20044;-89
2023/08/21 07:52:45;;;;;;;13.50;6.82;;;;;;;-142.57;33.48;115900.28;5078002;28;20032;-81
2023/08/21 07:55:13;;;;;;;12.13;6.30;;;;;;;-142.57;33.73;115900.28;5075763;28;20037;-83
2023/08/21 07:57:39;;;;;;;11.73;6.68;;;;;;;-142.57;32.16;115900.28;5077812;28;20107;-85
2023/08/21 08:00:08;;;;;;;11.88;6.20;;;;;;;-142.57;32.60;115900.28;5076078;28;20036;-90
2023/08/21 08:02:38;;;;;;;11.50;6.32;;;;;;;-142.57;33.42;115900.28;5076957;28;20045;-86
2023/08/21 08:05:04;;;;;;;20.02;6.57;;;;;;;-142.57;33.54;115900.28;5074125;28;20036;-86
2023/08/21 08:07:30;;;;;;;79.28;10.48;;;;;;;-142.57;32.33;115900.28;5073474;28;20110;-92
2023/08/21 08:09:55;;;;;;;38.95;7.32;;;;;;;-142.57;30.94;115900.28;5075912;28;20162;-85
2023/08/21 08:12:21;;;;;;;11.25;5.93;;;;;;;-142.57;30.99;115900.28;5078628;28;20031;-84
2023/08/21 08:14:52;;;;;;;9.77;5.60;;;;;;;-142.57;29.87;115900.28;5074792;28;20036;-84
2023/08/21 08:17:18;;;;;;;9.18;5.75;;;;;;;-142.57;29.75;115900.28;5076108;28;20037;-89
2023/08/21 08:19:43;;;;;;;13.10;5.95;;;;;;;-142.57;29.70;115900.28;5074791;28;20036;-85
2023/08/21 08:22:09;;;;;;;12.98;6.15;;;;;;;-142.57;28.69;115900.28;5075364;28;20025;-86
2023/08/21 08:24:34;;;;;;;16.63;6.97;;;;;;;-142.57;30.78;115900.28;5076207;28;20040;-84
2023/08/21 08:27:01;;;;;;;12.18;6.07;;;;;;;-142.57;31.44;115900.28;5076214;28;20032;-90
2023/08/21 08:29:27;;;;;;;12.40;6.55;;;;;;;-142.57;32.09;115900.28;5077899;28;20087;-88
2023/08/21 08:31:53;;;;;;;19.15;7.65;;;;;;;-142.57;32.18;115900.28;5075178;28;20492;-89
2023/08/21 08:34:20;;;;;;;34.67;7.90;;;;;;;-142.57;31.33;115900.28;5075854;28;20025;-88
2023/08/21 08:36:46;;;;;;;13.95;6.82;;;;;;;-142.57;30.92;115900.28;5077919;28;20029;-90
2023/08/21 08:39:11;;;;;;;10.43;6.35;;;;;;;-142.57;31.61;115900.28;5077036;28;20374;-85
2023/08/21 08:42:03;;;;;;;12.45;6.03;;;;;;;-142.57;32.38;115900.28;5076605;28;20028;-89
2023/08/21 08:44:30;;;;;;;11.48;6.00;;;;;;;-142.57;31.76;115900.28;5073319;28;20052;-86
2023/08/21 08:46:56;;;;;;;13.18;6.18;;;;;;;-142.57;30.76;115900.28;5077347;28;20134;-88
2023/08/21 08:49:25;;;;;;;12.63;6.03;;;;;;;-142.57;29.75;115900.28;5082514;28;20056;-86
2023/08/21 08:51:51;;;;;;;6.15;5.32;;;;;;;-142.57;29.50;115900.28;5083841;28;20037;-87
2023/08/21 08:54:19;;;;;;;12.73;6.22;;;;;;;-142.57;29.96;115900.28;5080370;28;20073;-87
2023/08/21 08:56:45;;;;;;;10.10;5.55;;;;;;;-142.57;31.26;115900.28;5083357;28;20182;-86
2023/08/21 08:59:10;;;;;;;10.40;5.82;;;;;;;-142.57;30.81;115900.28;5079460;28;20111;-86
2023/08/21 09:01:36;;;;;;;8.40;5.75;;;;;;;-142.57;30.20;115900.28;5079919;28;20044;-85
2023/08/21 09:04:03;;;;;;;8.95;5.10;;;;;;;-142.57;28.61;115900.28;5081920;28;20059;-88
2023/08/21 09:06:29;;;;;;;9.20;5.20;;;;;;;-142.57;28.37;115900.28;5084309;28;20032;-92
2023/08/21 09:08:57;;;;;;;15.13;5.53;;;;;;;-142.57;29.67;115900.28;5082299;28;20037;-88
2023/08/21 09:11:23;;;;;;;9.50;5.43;;;;;;;-142.57;30.11;115900.28;5077756;28;20116;-85
2023/08/21 09:13:51;;;;;;;8.90;5.30;;;;;;;-142.57;30.99;115900.28;5078026;28;20028;-85
2023/08/21 09:16:20;;;;;;;9.40;5.78;;;;;;;-142.57;29.67;115900.28;5074986;28;20146;-84
2023/08/21 09:18:50;;;;;;;6.95;5.05;;;;;;;-142.57;28.99;115900.28;5073032;28;20033;-82
2023/08/21 09:21:20;;;;;;;9.88;5.80;;;;;;;-142.57;28.86;115900.28;5074223;28;20099;-87
2023/08/21 09:23:47;;;;;;;12.68;5.28;;;;;;;-142.57;28.94;115900.28;5073492;28;20041;-84
2023/08/21 09:26:23;;;;;;;9.38;6.07;;;;;;;-142.57;28.77;115900.28;5069878;28;20128;-86
2023/08/21 09:28:50;;;;;;;10.75;5.65;;;;;;;-142.57;28.45;115900.28;5053453;28;20409;-84
2023/08/21 09:31:16;;;;;;;7.10;5.72;;;;;;;-142.57;28.47;115900.28;5053700;28;20021;-85
2023/08/21 09:33:42;;;;;;;8.25;5.13;;;;;;;-142.57;29.01;115900.28;5060543;28;20120;-85
2023/08/21 09:36:10;;;;;;;10.93;5.95;;;;;;;-142.57;29.08;115900.28;5071740;28;20127;-86
2023/08/21 09:38:38;;;;;;;10.18;5.15;;;;;;;-142.57;29.40;115900.28;5059073;28;20048;-85
2023/08/21 09:41:03;;;;;;;6.45;5.72;;;;;;;-142.57;28.97;115900.28;5059967;28;20063;-83
2023/08/21 09:43:29;;;;;;;12.82;6.30;;;;;;;-142.57;29.90;115900.28;5058320;28;20119;-84
2023/08/21 09:45:55;;;;;;;10.95;5.60;;;;;;;-142.57;29.76;115900.28;5071215;28;20036;-85
2023/08/21 09:48:27;;;;;;;11.35;5.53;;;;;;;-142.57;29.87;115900.28;5069393;28;20037;-83
2023/08/21 09:50:53;;;;;;;8.85;5.93;;;;;;;-142.57;29.83;115900.28;5060158;28;20032;-84
2023/08/21 09:53:23;;;;;;;9.23;6.13;;;;;;;-142.57;29.19;115900.28;5067281;28;20036;-86
2023/08/21 09:55:55;;;;;;;11.23;5.90;;;;;;;-142.57;30.15;115900.28;5079146;28;20080;-84
2023/08/21 09:58:21;;;;;;;8.88;6.00;;;;;;;-142.57;30.46;115900.28;5083611;28;20106;-80
2023/08/21 10:00:48;;;;;;;10.23;5.93;;;;;;;-142.57;29.42;115900.28;5078779;28;20477;-81
2023/08/21 10:03:21;;;;;;;9.40;6.22;;;;;;;-142.57;28.56;115900.28;5078479;28;20028;-85
2023/08/21 10:05:47;;;;;;;9.80;6.07;;;;;;;-142.57;28.94;115900.28;5065356;28;20037;-86
2023/08/21 10:08:16;;;;;;;9.05;6.00;;;;;;;-142.57;27.97;115900.28;5077701;28;20099;-87
2023/08/21 10:10:41;;;;;;;7.60;5.18;;;;;;;-142.57;27.68;115900.28;5077089;28;20092;-84
2023/08/21 10:13:09;;;;;;;9.48;5.50;;;;;;;-142.57;28.11;115900.28;5076977;28;20162;-86
2023/08/21 10:15:36;;;;;;;9.85;6.20;;;;;;;-142.57;28.45;115900.28;5076081;28;20126;-85
2023/08/21 10:18:24;;;;;;;11.63;5.85;;;;;;;-142.57;29.09;115900.28;5077751;28;20037;-83
2023/08/21 10:20:51;;;;;;;9.18;6.00;;;;;;;-142.57;28.56;115900.28;5076770;28;20033;-84
2023/08/21 10:23:31;;;;;;;9.77;5.60;;;;;;;-142.57;28.31;115900.28;5071262;28;20041;-84
2023/08/21 10:26:01;;;;;;;10.52;5.50;;;;;;;-142.57;27.80;115900.28;5070171;28;20063;-87
2023/08/21 10:28:58;;;;;;;9.25;5.75;;;;;;;-142.57;27.78;115900.28;5076382;28;20036;-86
2023/08/21 10:31:34;;;;;;;6.90;5.30;;;;;;;-142.57;28.37;115900.28;5077447;28;20078;-83
2023/08/21 10:34:03;;;;;;;12.00;5.70;;;;;;;-142.57;27.42;115900.28;5079242;28;20040;-86
2023/08/21 10:36:38;;;;;;;10.98;5.70;;;;;;;-142.57;28.10;115900.28;5077059;28;20037;-86
2023/08/21 10:39:04;;;;;;;13.98;6.15;;;;;;;-142.57;28.18;115900.28;5077858;28;20040;-85
2023/08/21 10:41:30;;;;;;;8.07;5.95;;;;;;;-142.57;27.88;115900.28;5077718;28;20098;-85
2023/08/21 10:44:00;;;;;;;10.57;6.05;;;;;;;-142.57;27.66;115900.28;5078387;28;20382;-88
2023/08/21 10:46:26;;;;;;;9.07;5.60;;;;;;;-142.57;28.19;115900.28;5080841;28;20473;-85
2023/08/21 10:48:51;;;;;;;12.68;6.45;;;;;;;-142.57;28.04;115900.28;5077065;28;20039;-88
2023/08/21 10:51:17;;;;;;;12.40;6.63;;;;;;;-142.57;28.55;115900.28;5081366;28;20036;-85
2023/08/21 10:53:43;;;;;;;11.43;5.57;;;;;;;-142.57;27.75;115900.28;5077692;28;20052;-85
2023/08/21 10:56:08;;;;;;;7.45;5.70;;;;;;;-142.57;28.40;115900.28;5070465;28;20037;-83
2023/08/21 10:58:46;;;;;;;8.98;6.38;;;;;;;-142.57;28.47;115900.28;5068313;28;20036;-84
2023/08/21 11:01:15;;;;;;;16.73;6.10;;;;;;;-142.57;28.50;115900.28;5062617;28;20061;-83
2023/08/21 11:03:44;;;;;;;6.80;5.72;;;;;;;-142.57;27.87;115900.28;5061302;28;20037;-83